KEYW/EYW METAR and TAF weather

Enter ICAO airport designator
Station Type Date Time Source
KEYW METAR 2019/02/16 06:53 UTC NOAA

KEYW 160653Z AUTO 04003KT 10SM CLR 21/19 A2995 RMK AO2 SLP140 T02110194


Station Type Date Time Source
KEYW Decoded METAR 2019/02/16 06:53 UTC NOAA

KEY WEST INTERNATIONAL AIRPORT , FL, United States (KEYW) 24-33N 81-46W 5M
Feb 16, 2019 - 01:53 AM EST / 2019.02.16 0653 UTC
Wind: from the NE (040 degrees) at 3 MPH (3 KT):0
Visibility: 10 mile(s):0
Sky conditions: clear
Temperature: 70.0 F (21.1 C)
Dew Point: 66.9 F (19.4 C)
Relative Humidity: 90%
Pressure (altimeter): 29.95 in. Hg (1014 hPa)
ob: KEYW 160653Z AUTO 04003KT 10SM CLR 21/19 A2995 RMK AO2 SLP140 T02110194
cycle: 7

Station Type Date Time Source
KEYW TAF 2019/02/16 06:22 UTC NOAA

TAF KEYW 160520Z 1606/1706 VRB04KT P6SM FEW040 SCT200
FM161200 16006KT P6SM SCT030


Example: see airport list